sensor_id;sensor_type;location;lat;lon;timestamp;P1;durP1;ratioP1;P2;durP2;ratioP2
57191;SDS011;43052;52.588;13.396;2022-09-17T00:00:36;5.35;;;2.80;;
57191;SDS011;43052;52.588;13.396;2022-09-17T00:03:03;6.35;;;2.80;;
57191;SDS011;43052;52.588;13.396;2022-09-17T00:05:28;8.65;;;2.88;;
57191;SDS011;43052;52.588;13.396;2022-09-17T00:07:54;8.38;;;3.28;;
57191;SDS011;43052;52.588;13.396;2022-09-17T00:10:19;6.18;;;2.83;;
57191;SDS011;43052;52.588;13.396;2022-09-17T00:12:45;6.55;;;2.70;;
57191;SDS011;43052;52.588;13.396;2022-09-17T00:15:11;6.18;;;2.70;;
57191;SDS011;43052;52.588;13.396;2022-09-17T00:17:36;6.10;;;2.97;;
57191;SDS011;43052;52.588;13.396;2022-09-17T00:20:02;5.57;;;2.58;;
57191;SDS011;43052;52.588;13.396;2022-09-17T00:22:28;7.63;;;2.95;;
57191;SDS011;43052;52.588;13.396;2022-09-17T00:24:53;7.25;;;2.85;;
57191;SDS011;43052;52.588;13.396;2022-09-17T00:27:18;5.95;;;3.35;;
57191;SDS011;43052;52.588;13.396;2022-09-17T00:29:43;6.25;;;3.15;;
57191;SDS011;43052;52.588;13.396;2022-09-17T00:32:09;5.97;;;3.30;;
57191;SDS011;43052;52.588;13.396;2022-09-17T00:34:34;8.55;;;3.10;;
57191;SDS011;43052;52.588;13.396;2022-09-17T00:36:59;6.07;;;3.50;;
57191;SDS011;43052;52.588;13.396;2022-09-17T00:39:25;7.95;;;3.30;;
57191;SDS011;43052;52.588;13.396;2022-09-17T00:41:50;9.00;;;3.85;;
57191;SDS011;43052;52.588;13.396;2022-09-17T00:44:37;6.60;;;3.15;;
57191;SDS011;43052;52.588;13.396;2022-09-17T00:49:48;6.57;;;3.17;;
57191;SDS011;43052;52.588;13.396;2022-09-17T00:52:17;7.38;;;3.13;;
57191;SDS011;43052;52.588;13.396;2022-09-17T00:54:48;10.30;;;3.05;;
57191;SDS011;43052;52.588;13.396;2022-09-17T00:57:18;6.00;;;3.00;;
57191;SDS011;43052;52.588;13.396;2022-09-17T00:59:44;7.13;;;3.15;;
57191;SDS011;43052;52.588;13.396;2022-09-17T01:02:09;9.45;;;3.13;;
57191;SDS011;43052;52.588;13.396;2022-09-17T01:04:35;7.63;;;3.00;;
57191;SDS011;43052;52.588;13.396;2022-09-17T01:07:08;6.53;;;3.50;;
57191;SDS011;43052;52.588;13.396;2022-09-17T01:18:09;9.52;;;3.17;;
57191;SDS011;43052;52.588;13.396;2022-09-17T01:26:53;5.25;;;2.78;;
57191;SDS011;43052;52.588;13.396;2022-09-17T01:33:32;6.63;;;3.28;;
57191;SDS011;43052;52.588;13.396;2022-09-17T01:36:09;6.25;;;2.70;;
57191;SDS011;43052;52.588;13.396;2022-09-17T01:39:34;9.30;;;2.65;;
57191;SDS011;43052;52.588;13.396;2022-09-17T01:47:31;10.75;;;3.42;;
57191;SDS011;43052;52.588;13.396;2022-09-17T01:50:11;9.07;;;3.30;;
57191;SDS011;43052;52.588;13.396;2022-09-17T01:52:44;8.60;;;3.15;;
57191;SDS011;43052;52.588;13.396;2022-09-17T01:55:14;7.68;;;3.20;;
57191;SDS011;43052;52.588;13.396;2022-09-17T01:57:44;9.15;;;3.28;;
57191;SDS011;43052;52.588;13.396;2022-09-17T02:00:14;12.60;;;3.38;;
57191;SDS011;43052;52.588;13.396;2022-09-17T02:02:56;7.07;;;3.13;;
57191;SDS011;43052;52.588;13.396;2022-09-17T02:05:27;9.32;;;3.17;;
57191;SDS011;43052;52.588;13.396;2022-09-17T02:07:57;8.40;;;3.25;;
57191;SDS011;43052;52.588;13.396;2022-09-17T02:10:30;11.10;;;3.47;;
57191;SDS011;43052;52.588;13.396;2022-09-17T02:13:05;7.57;;;3.53;;
57191;SDS011;43052;52.588;13.396;2022-09-17T02:15:38;7.80;;;3.13;;
57191;SDS011;43052;52.588;13.396;2022-09-17T02:21:29;6.63;;;3.28;;
57191;SDS011;43052;52.588;13.396;2022-09-17T02:24:11;9.80;;;3.53;;
57191;SDS011;43052;52.588;13.396;2022-09-17T02:29:39;10.52;;;4.68;;
57191;SDS011;43052;52.588;13.396;2022-09-17T02:32:06;9.90;;;5.07;;
57191;SDS011;43052;52.588;13.396;2022-09-17T02:34:32;9.65;;;5.80;;
57191;SDS011;43052;52.588;13.396;2022-09-17T02:36:58;8.30;;;5.28;;
57191;SDS011;43052;52.588;13.396;2022-09-17T02:39:24;10.07;;;5.07;;
57191;SDS011;43052;52.588;13.396;2022-09-17T02:47:45;10.73;;;5.43;;
57191;SDS011;43052;52.588;13.396;2022-09-17T02:53:05;12.50;;;4.97;;
57191;SDS011;43052;52.588;13.396;2022-09-17T02:55:49;9.77;;;4.50;;
57191;SDS011;43052;52.588;13.396;2022-09-17T02:58:25;10.75;;;4.80;;
57191;SDS011;43052;52.588;13.396;2022-09-17T03:00:56;8.63;;;3.50;;
57191;SDS011;43052;52.588;13.396;2022-09-17T03:03:36;10.77;;;3.67;;
57191;SDS011;43052;52.588;13.396;2022-09-17T03:06:04;8.40;;;4.00;;
57191;SDS011;43052;52.588;13.396;2022-09-17T03:08:34;8.38;;;3.55;;
57191;SDS011;43052;52.588;13.396;2022-09-17T03:11:03;11.20;;;3.83;;
57191;SDS011;43052;52.588;13.396;2022-09-17T03:13:30;7.35;;;3.58;;
57191;SDS011;43052;52.588;13.396;2022-09-17T03:15:55;10.43;;;4.07;;
57191;SDS011;43052;52.588;13.396;2022-09-17T03:18:21;13.75;;;4.38;;
57191;SDS011;43052;52.588;13.396;2022-09-17T03:20:47;12.65;;;4.60;;
57191;SDS011;43052;52.588;13.396;2022-09-17T03:23:12;11.93;;;4.30;;
57191;SDS011;43052;52.588;13.396;2022-09-17T03:25:38;12.50;;;4.25;;
57191;SDS011;43052;52.588;13.396;2022-09-17T03:28:03;10.95;;;3.80;;
57191;SDS011;43052;52.588;13.396;2022-09-17T03:30:28;11.68;;;3.80;;
57191;SDS011;43052;52.588;13.396;2022-09-17T03:32:53;10.95;;;3.50;;
57191;SDS011;43052;52.588;13.396;2022-09-17T03:35:19;10.30;;;3.90;;
57191;SDS011;43052;52.588;13.396;2022-09-17T03:37:44;11.05;;;4.15;;
57191;SDS011;43052;52.588;13.396;2022-09-17T03:40:11;9.98;;;3.60;;
57191;SDS011;43052;52.588;13.396;2022-09-17T03:42:36;7.38;;;3.60;;
57191;SDS011;43052;52.588;13.396;2022-09-17T03:45:02;9.75;;;3.40;;
57191;SDS011;43052;52.588;13.396;2022-09-17T03:47:27;9.63;;;3.40;;
57191;SDS011;43052;52.588;13.396;2022-09-17T03:49:52;10.95;;;3.95;;
57191;SDS011;43052;52.588;13.396;2022-09-17T03:52:17;8.93;;;3.90;;
57191;SDS011;43052;52.588;13.396;2022-09-17T03:54:43;7.65;;;3.20;;
57191;SDS011;43052;52.588;13.396;2022-09-17T03:57:08;8.35;;;3.15;;
57191;SDS011;43052;52.588;13.396;2022-09-17T03:59:33;9.27;;;4.00;;
57191;SDS011;43052;52.588;13.396;2022-09-17T04:01:58;7.72;;;3.53;;
57191;SDS011;43052;52.588;13.396;2022-09-17T04:04:24;8.27;;;3.20;;
57191;SDS011;43052;52.588;13.396;2022-09-17T04:06:49;10.98;;;3.83;;
57191;SDS011;43052;52.588;13.396;2022-09-17T04:09:14;12.57;;;4.00;;
57191;SDS011;43052;52.588;13.396;2022-09-17T04:11:40;14.15;;;3.83;;
57191;SDS011;43052;52.588;13.396;2022-09-17T04:14:05;9.77;;;4.15;;
57191;SDS011;43052;52.588;13.396;2022-09-17T04:16:30;10.10;;;3.75;;
57191;SDS011;43052;52.588;13.396;2022-09-17T04:18:55;10.82;;;3.78;;
57191;SDS011;43052;52.588;13.396;2022-09-17T04:21:21;11.13;;;3.90;;
57191;SDS011;43052;52.588;13.396;2022-09-17T04:23:46;8.48;;;3.25;;
57191;SDS011;43052;52.588;13.396;2022-09-17T04:26:11;10.82;;;3.65;;
57191;SDS011;43052;52.588;13.396;2022-09-17T04:28:37;7.75;;;3.40;;
57191;SDS011;43052;52.588;13.396;2022-09-17T04:31:02;10.32;;;3.47;;
57191;SDS011;43052;52.588;13.396;2022-09-17T04:33:27;8.95;;;3.28;;
57191;SDS011;43052;52.588;13.396;2022-09-17T04:35:52;9.48;;;3.50;;
57191;SDS011;43052;52.588;13.396;2022-09-17T04:38:18;8.98;;;3.58;;
57191;SDS011;43052;52.588;13.396;2022-09-17T04:40:44;11.38;;;3.80;;
57191;SDS011;43052;52.588;13.396;2022-09-17T04:43:10;8.43;;;3.13;;
57191;SDS011;43052;52.588;13.396;2022-09-17T04:45:36;7.20;;;3.50;;
57191;SDS011;43052;52.588;13.396;2022-09-17T04:48:01;11.25;;;3.42;;
57191;SDS011;43052;52.588;13.396;2022-09-17T04:50:27;13.98;;;3.63;;
57191;SDS011;43052;52.588;13.396;2022-09-17T04:52:52;10.23;;;3.63;;
57191;SDS011;43052;52.588;13.396;2022-09-17T04:55:17;8.88;;;3.40;;
57191;SDS011;43052;52.588;13.396;2022-09-17T04:57:46;9.65;;;3.28;;
57191;SDS011;43052;52.588;13.396;2022-09-17T05:00:13;7.18;;;3.22;;
57191;SDS011;43052;52.588;13.396;2022-09-17T05:02:39;10.15;;;3.45;;
57191;SDS011;43052;52.588;13.396;2022-09-17T05:05:07;8.70;;;3.78;;
57191;SDS011;43052;52.588;13.396;2022-09-17T05:07:32;10.35;;;3.35;;
57191;SDS011;43052;52.588;13.396;2022-09-17T05:09:58;10.18;;;3.13;;
57191;SDS011;43052;52.588;13.396;2022-09-17T05:12:23;10.25;;;3.53;;
57191;SDS011;43052;52.588;13.396;2022-09-17T05:14:48;12.77;;;3.38;;
57191;SDS011;43052;52.588;13.396;2022-09-17T05:17:13;9.13;;;3.00;;
57191;SDS011;43052;52.588;13.396;2022-09-17T05:19:39;10.35;;;3.55;;
57191;SDS011;43052;52.588;13.396;2022-09-17T05:22:04;10.65;;;3.38;;
57191;SDS011;43052;52.588;13.396;2022-09-17T05:24:29;10.13;;;3.30;;
57191;SDS011;43052;52.588;13.396;2022-09-17T05:26:55;15.60;;;3.75;;
57191;SDS011;43052;52.588;13.396;2022-09-17T05:29:20;9.75;;;3.50;;
57191;SDS011;43052;52.588;13.396;2022-09-17T05:31:45;7.80;;;2.92;;
57191;SDS011;43052;52.588;13.396;2022-09-17T05:34:11;9.07;;;3.47;;
57191;SDS011;43052;52.588;13.396;2022-09-17T05:36:36;9.63;;;3.45;;
57191;SDS011;43052;52.588;13.396;2022-09-17T05:39:01;14.60;;;3.30;;
57191;SDS011;43052;52.588;13.396;2022-09-17T05:41:26;10.75;;;3.80;;
57191;SDS011;43052;52.588;13.396;2022-09-17T05:43:52;11.60;;;3.83;;
57191;SDS011;43052;52.588;13.396;2022-09-17T05:46:17;9.50;;;3.40;;
57191;SDS011;43052;52.588;13.396;2022-09-17T05:48:42;8.55;;;3.17;;
57191;SDS011;43052;52.588;13.396;2022-09-17T05:51:08;9.82;;;3.50;;
57191;SDS011;43052;52.588;13.396;2022-09-17T05:53:33;12.07;;;3.90;;
57191;SDS011;43052;52.588;13.396;2022-09-17T05:55:58;9.27;;;3.95;;
57191;SDS011;43052;52.588;13.396;2022-09-17T05:58:24;9.10;;;3.25;;
57191;SDS011;43052;52.588;13.396;2022-09-17T06:00:49;8.90;;;4.20;;
57191;SDS011;43052;52.588;13.396;2022-09-17T06:03:16;9.20;;;3.58;;
57191;SDS011;43052;52.588;13.396;2022-09-17T06:05:43;11.35;;;3.78;;
57191;SDS011;43052;52.588;13.396;2022-09-17T06:08:17;14.68;;;4.05;;
57191;SDS011;43052;52.588;13.396;2022-09-17T06:10:42;13.38;;;3.78;;
57191;SDS011;43052;52.588;13.396;2022-09-17T06:13:08;10.20;;;3.58;;
57191;SDS011;43052;52.588;13.396;2022-09-17T06:15:33;11.50;;;3.20;;
57191;SDS011;43052;52.588;13.396;2022-09-17T06:17:58;12.15;;;3.55;;
57191;SDS011;43052;52.588;13.396;2022-09-17T06:20:23;11.80;;;3.55;;
57191;SDS011;43052;52.588;13.396;2022-09-17T06:22:53;13.05;;;3.67;;
57191;SDS011;43052;52.588;13.396;2022-09-17T06:25:20;11.75;;;3.88;;
57191;SDS011;43052;52.588;13.396;2022-09-17T06:27:45;11.02;;;3.70;;
57191;SDS011;43052;52.588;13.396;2022-09-17T06:30:10;9.52;;;3.17;;
57191;SDS011;43052;52.588;13.396;2022-09-17T06:32:35;13.40;;;3.58;;
57191;SDS011;43052;52.588;13.396;2022-09-17T06:35:01;9.20;;;3.67;;
57191;SDS011;43052;52.588;13.396;2022-09-17T06:37:30;13.20;;;4.05;;
57191;SDS011;43052;52.588;13.396;2022-09-17T06:39:56;15.90;;;4.10;;
57191;SDS011;43052;52.588;13.396;2022-09-17T06:42:23;12.68;;;3.60;;
57191;SDS011;43052;52.588;13.396;2022-09-17T06:44:48;14.13;;;3.83;;
57191;SDS011;43052;52.588;13.396;2022-09-17T06:47:14;15.60;;;4.32;;
57191;SDS011;43052;52.588;13.396;2022-09-17T06:49:39;13.77;;;3.90;;
57191;SDS011;43052;52.588;13.396;2022-09-17T06:52:04;13.00;;;3.85;;
57191;SDS011;43052;52.588;13.396;2022-09-17T06:54:29;9.00;;;3.75;;
57191;SDS011;43052;52.588;13.396;2022-09-17T06:56:55;13.20;;;3.83;;
57191;SDS011;43052;52.588;13.396;2022-09-17T06:59:20;14.95;;;4.22;;
57191;SDS011;43052;52.588;13.396;2022-09-17T07:01:46;16.00;;;4.05;;
57191;SDS011;43052;52.588;13.396;2022-09-17T07:04:11;15.23;;;4.90;;
57191;SDS011;43052;52.588;13.396;2022-09-17T07:06:36;12.85;;;4.00;;
57191;SDS011;43052;52.588;13.396;2022-09-17T07:09:02;13.65;;;3.55;;
57191;SDS011;43052;52.588;13.396;2022-09-17T07:11:28;8.60;;;3.58;;
57191;SDS011;43052;52.588;13.396;2022-09-17T07:13:55;10.70;;;3.80;;
57191;SDS011;43052;52.588;13.396;2022-09-17T07:16:20;12.25;;;5.28;;
57191;SDS011;43052;52.588;13.396;2022-09-17T07:18:45;13.15;;;3.53;;
57191;SDS011;43052;52.588;13.396;2022-09-17T07:21:11;14.30;;;3.67;;
57191;SDS011;43052;52.588;13.396;2022-09-17T07:23:36;17.13;;;4.20;;
57191;SDS011;43052;52.588;13.396;2022-09-17T07:26:12;14.85;;;3.97;;
57191;SDS011;43052;52.588;13.396;2022-09-17T07:28:39;13.18;;;3.72;;
57191;SDS011;43052;52.588;13.396;2022-09-17T07:31:05;11.00;;;3.72;;
57191;SDS011;43052;52.588;13.396;2022-09-17T07:33:31;11.18;;;4.22;;
57191;SDS011;43052;52.588;13.396;2022-09-17T07:36:01;11.70;;;3.40;;
57191;SDS011;43052;52.588;13.396;2022-09-17T07:38:29;9.27;;;3.58;;
57191;SDS011;43052;52.588;13.396;2022-09-17T07:41:05;11.07;;;3.35;;
57191;SDS011;43052;52.588;13.396;2022-09-17T07:43:32;12.75;;;3.40;;
57191;SDS011;43052;52.588;13.396;2022-09-17T07:45:59;14.05;;;3.47;;
57191;SDS011;43052;52.588;13.396;2022-09-17T07:48:26;9.85;;;3.28;;
57191;SDS011;43052;52.588;13.396;2022-09-17T07:50:52;12.05;;;2.97;;
57191;SDS011;43052;52.588;13.396;2022-09-17T07:53:17;10.65;;;2.88;;
57191;SDS011;43052;52.588;13.396;2022-09-17T07:55:49;9.20;;;2.65;;
57191;SDS011;43052;52.588;13.396;2022-09-17T07:58:22;12.73;;;3.47;;
57191;SDS011;43052;52.588;13.396;2022-09-17T08:00:52;11.90;;;2.70;;
57191;SDS011;43052;52.588;13.396;2022-09-17T08:03:17;11.48;;;2.65;;
57191;SDS011;43052;52.588;13.396;2022-09-17T08:05:42;14.63;;;3.22;;
57191;SDS011;43052;52.588;13.396;2022-09-17T08:08:07;8.80;;;3.00;;
57191;SDS011;43052;52.588;13.396;2022-09-17T08:10:33;13.85;;;3.22;;
57191;SDS011;43052;52.588;13.396;2022-09-17T08:12:59;6.65;;;2.33;;
57191;SDS011;43052;52.588;13.396;2022-09-17T08:15:25;10.38;;;2.63;;
57191;SDS011;43052;52.588;13.396;2022-09-17T08:17:50;9.68;;;2.70;;
57191;SDS011;43052;52.588;13.396;2022-09-17T08:20:17;12.10;;;3.13;;
57191;SDS011;43052;52.588;13.396;2022-09-17T08:22:43;9.57;;;2.25;;
57191;SDS011;43052;52.588;13.396;2022-09-17T08:25:09;10.45;;;2.50;;
57191;SDS011;43052;52.588;13.396;2022-09-17T08:27:34;10.73;;;3.40;;
57191;SDS011;43052;52.588;13.396;2022-09-17T08:30:00;7.88;;;2.47;;
57191;SDS011;43052;52.588;13.396;2022-09-17T08:32:27;12.02;;;2.90;;
57191;SDS011;43052;52.588;13.396;2022-09-17T08:34:53;8.73;;;2.35;;
57191;SDS011;43052;52.588;13.396;2022-09-17T08:37:19;7.30;;;2.28;;
57191;SDS011;43052;52.588;13.396;2022-09-17T08:39:44;9.82;;;3.08;;
57191;SDS011;43052;52.588;13.396;2022-09-17T08:45:02;8.50;;;2.58;;
57191;SDS011;43052;52.588;13.396;2022-09-17T08:47:39;5.18;;;2.20;;
57191;SDS011;43052;52.588;13.396;2022-09-17T08:50:20;6.82;;;2.03;;
57191;SDS011;43052;52.588;13.396;2022-09-17T08:56:00;8.30;;;2.30;;
57191;SDS011;43052;52.588;13.396;2022-09-17T09:03:48;6.93;;;2.60;;
57191;SDS011;43052;52.588;13.396;2022-09-17T09:06:36;5.05;;;2.13;;
57191;SDS011;43052;52.588;13.396;2022-09-17T09:09:11;6.45;;;2.35;;
57191;SDS011;43052;52.588;13.396;2022-09-17T09:11:40;8.98;;;2.38;;
57191;SDS011;43052;52.588;13.396;2022-09-17T09:16:42;8.13;;;2.47;;
57191;SDS011;43052;52.588;13.396;2022-09-17T09:19:52;8.82;;;2.35;;
57191;SDS011;43052;52.588;13.396;2022-09-17T09:22:13;7.78;;;2.53;;
57191;SDS011;43052;52.588;13.396;2022-09-17T09:24:51;6.38;;;1.80;;
57191;SDS011;43052;52.588;13.396;2022-09-17T09:27:35;7.10;;;2.33;;
57191;SDS011;43052;52.588;13.396;2022-09-17T09:30:05;6.85;;;2.00;;
57191;SDS011;43052;52.588;13.396;2022-09-17T09:35:26;6.20;;;2.22;;
57191;SDS011;43052;52.588;13.396;2022-09-17T09:38:00;22.48;;;2.63;;
57191;SDS011;43052;52.588;13.396;2022-09-17T09:40:40;6.65;;;2.38;;
57191;SDS011;43052;52.588;13.396;2022-09-17T09:43:21;10.27;;;2.50;;
57191;SDS011;43052;52.588;13.396;2022-09-17T09:46:03;11.70;;;2.63;;
57191;SDS011;43052;52.588;13.396;2022-09-17T09:51:55;10.30;;;3.13;;
57191;SDS011;43052;52.588;13.396;2022-09-17T09:54:56;11.57;;;2.70;;
57191;SDS011;43052;52.588;13.396;2022-09-17T09:57:46;7.68;;;2.40;;
57191;SDS011;43052;52.588;13.396;2022-09-17T10:02:52;8.82;;;2.67;;
57191;SDS011;43052;52.588;13.396;2022-09-17T10:05:20;9.43;;;2.58;;
57191;SDS011;43052;52.588;13.396;2022-09-17T10:07:46;9.57;;;2.75;;
57191;SDS011;43052;52.588;13.396;2022-09-17T10:10:11;8.35;;;2.63;;
57191;SDS011;43052;52.588;13.396;2022-09-17T10:12:36;8.75;;;2.35;;
57191;SDS011;43052;52.588;13.396;2022-09-17T10:15:23;9.25;;;2.30;;
57191;SDS011;43052;52.588;13.396;2022-09-17T10:17:51;6.07;;;2.70;;
57191;SDS011;43052;52.588;13.396;2022-09-17T10:20:35;8.40;;;2.45;;
57191;SDS011;43052;52.588;13.396;2022-09-17T10:23:00;6.60;;;1.70;;
57191;SDS011;43052;52.588;13.396;2022-09-17T10:25:31;4.93;;;1.60;;
57191;SDS011;43052;52.588;13.396;2022-09-17T10:27:59;9.77;;;2.35;;
57191;SDS011;43052;52.588;13.396;2022-09-17T10:30:27;10.30;;;2.20;;
57191;SDS011;43052;52.588;13.396;2022-09-17T10:36:08;7.57;;;2.05;;
57191;SDS011;43052;52.588;13.396;2022-09-17T10:38:38;9.50;;;2.47;;
57191;SDS011;43052;52.588;13.396;2022-09-17T10:43:37;6.53;;;2.50;;
57191;SDS011;43052;52.588;13.396;2022-09-17T10:46:03;6.95;;;2.45;;
57191;SDS011;43052;52.588;13.396;2022-09-17T10:48:35;9.20;;;2.08;;
57191;SDS011;43052;52.588;13.396;2022-09-17T10:51:04;7.93;;;2.10;;
57191;SDS011;43052;52.588;13.396;2022-09-17T10:53:30;8.35;;;2.20;;
57191;SDS011;43052;52.588;13.396;2022-09-17T10:56:25;9.02;;;2.15;;
57191;SDS011;43052;52.588;13.396;2022-09-17T11:04:33;8.60;;;2.17;;
57191;SDS011;43052;52.588;13.396;2022-09-17T11:12:33;9.35;;;2.13;;
57191;SDS011;43052;52.588;13.396;2022-09-17T11:15:19;7.93;;;2.20;;
57191;SDS011;43052;52.588;13.396;2022-09-17T11:18:04;7.80;;;2.25;;
57191;SDS011;43052;52.588;13.396;2022-09-17T11:26:31;7.97;;;2.25;;
57191;SDS011;43052;52.588;13.396;2022-09-17T11:32:15;9.88;;;2.00;;
57191;SDS011;43052;52.588;13.396;2022-09-17T11:37:45;4.45;;;1.50;;
57191;SDS011;43052;52.588;13.396;2022-09-17T11:40:24;7.05;;;2.00;;
57191;SDS011;43052;52.588;13.396;2022-09-17T11:43:01;6.95;;;1.92;;
57191;SDS011;43052;52.588;13.396;2022-09-17T11:45:35;6.82;;;1.80;;
57191;SDS011;43052;52.588;13.396;2022-09-17T11:48:11;5.93;;;2.20;;
57191;SDS011;43052;52.588;13.396;2022-09-17T11:50:56;7.47;;;2.30;;
57191;SDS011;43052;52.588;13.396;2022-09-17T11:53:31;5.70;;;2.28;;
57191;SDS011;43052;52.588;13.396;2022-09-17T11:56:48;6.32;;;2.10;;
57191;SDS011;43052;52.588;13.396;2022-09-17T12:01:34;5.78;;;2.20;;
57191;SDS011;43052;52.588;13.396;2022-09-17T12:06:40;4.78;;;1.60;;
57191;SDS011;43052;52.588;13.396;2022-09-17T12:09:14;6.18;;;1.83;;
57191;SDS011;43052;52.588;13.396;2022-09-17T12:12:01;6.20;;;1.90;;
57191;SDS011;43052;52.588;13.396;2022-09-17T12:14:48;8.48;;;4.32;;
57191;SDS011;43052;52.588;13.396;2022-09-17T12:17:20;5.80;;;1.58;;
57191;SDS011;43052;52.588;13.396;2022-09-17T12:19:50;4.93;;;1.70;;
57191;SDS011;43052;52.588;13.396;2022-09-17T12:22:25;7.20;;;1.40;;
57191;SDS011;43052;52.588;13.396;2022-09-17T12:24:54;2.65;;;1.33;;
57191;SDS011;43052;52.588;13.396;2022-09-17T12:30:31;3.63;;;1.20;;
57191;SDS011;43052;52.588;13.396;2022-09-17T12:33:12;4.82;;;1.27;;
57191;SDS011;43052;52.588;13.396;2022-09-17T12:41:53;4.55;;;1.60;;
57191;SDS011;43052;52.588;13.396;2022-09-17T12:44:46;3.15;;;1.30;;
57191;SDS011;43052;52.588;13.396;2022-09-17T12:50:38;3.63;;;1.00;;
57191;SDS011;43052;52.588;13.396;2022-09-17T12:53:20;2.95;;;1.30;;
57191;SDS011;43052;52.588;13.396;2022-09-17T12:56:02;3.63;;;1.15;;
57191;SDS011;43052;52.588;13.396;2022-09-17T12:58:49;4.78;;;1.58;;
57191;SDS011;43052;52.588;13.396;2022-09-17T13:01:33;4.55;;;1.48;;
57191;SDS011;43052;52.588;13.396;2022-09-17T13:09:39;3.85;;;1.52;;
57191;SDS011;43052;52.588;13.396;2022-09-17T13:12:25;8.13;;;1.80;;
57191;SDS011;43052;52.588;13.396;2022-09-17T13:17:38;3.78;;;1.15;;
57191;SDS011;43052;52.588;13.396;2022-09-17T13:20:22;6.18;;;1.45;;
57191;SDS011;43052;52.588;13.396;2022-09-17T13:22:52;4.57;;;1.48;;
57191;SDS011;43052;52.588;13.396;2022-09-17T13:25:20;8.20;;;1.65;;
57191;SDS011;43052;52.588;13.396;2022-09-17T13:27:46;3.33;;;1.20;;
57191;SDS011;43052;52.588;13.396;2022-09-17T13:30:15;5.10;;;1.30;;
57191;SDS011;43052;52.588;13.396;2022-09-17T13:32:45;5.40;;;1.45;;
57191;SDS011;43052;52.588;13.396;2022-09-17T13:37:40;3.47;;;1.50;;
57191;SDS011;43052;52.588;13.396;2022-09-17T13:40:22;3.85;;;1.30;;
57191;SDS011;43052;52.588;13.396;2022-09-17T13:42:50;4.93;;;1.60;;
57191;SDS011;43052;52.588;13.396;2022-09-17T13:45:22;6.35;;;2.15;;
57191;SDS011;43052;52.588;13.396;2022-09-17T13:47:49;4.72;;;1.55;;
57191;SDS011;43052;52.588;13.396;2022-09-17T13:55:42;5.00;;;1.52;;
57191;SDS011;43052;52.588;13.396;2022-09-17T13:58:12;4.28;;;1.40;;
57191;SDS011;43052;52.588;13.396;2022-09-17T14:00:55;3.25;;;1.20;;
57191;SDS011;43052;52.588;13.396;2022-09-17T14:08:29;5.82;;;1.38;;
57191;SDS011;43052;52.588;13.396;2022-09-17T14:11:34;4.70;;;1.20;;
57191;SDS011;43052;52.588;13.396;2022-09-17T14:16:50;6.45;;;1.60;;
57191;SDS011;43052;52.588;13.396;2022-09-17T14:19:29;3.42;;;1.10;;
57191;SDS011;43052;52.588;13.396;2022-09-17T14:22:15;5.13;;;1.27;;
57191;SDS011;43052;52.588;13.396;2022-09-17T14:24:50;5.20;;;1.10;;
57191;SDS011;43052;52.588;13.396;2022-09-17T14:30:30;3.03;;;1.20;;
57191;SDS011;43052;52.588;13.396;2022-09-17T14:33:00;4.45;;;1.48;;
57191;SDS011;43052;52.588;13.396;2022-09-17T14:35:47;3.22;;;1.05;;
57191;SDS011;43052;52.588;13.396;2022-09-17T14:43:39;3.40;;;1.08;;
57191;SDS011;43052;52.588;13.396;2022-09-17T14:46:23;3.80;;;1.10;;
57191;SDS011;43052;52.588;13.396;2022-09-17T14:48:53;2.85;;;0.90;;
57191;SDS011;43052;52.588;13.396;2022-09-17T14:53:47;4.35;;;0.85;;
57191;SDS011;43052;52.588;13.396;2022-09-17T14:56:23;4.10;;;1.05;;
57191;SDS011;43052;52.588;13.396;2022-09-17T15:01:23;3.63;;;1.10;;
57191;SDS011;43052;52.588;13.396;2022-09-17T15:06:41;2.97;;;0.90;;
57191;SDS011;43052;52.588;13.396;2022-09-17T15:09:14;2.33;;;1.33;;
57191;SDS011;43052;52.588;13.396;2022-09-17T15:11:40;2.25;;;1.20;;
57191;SDS011;43052;52.588;13.396;2022-09-17T15:14:12;1.38;;;0.95;;
57191;SDS011;43052;52.588;13.396;2022-09-17T15:16:45;1.20;;;0.88;;
57191;SDS011;43052;52.588;13.396;2022-09-17T15:19:13;2.28;;;1.20;;
57191;SDS011;43052;52.588;13.396;2022-09-17T15:21:46;1.23;;;0.75;;
57191;SDS011;43052;52.588;13.396;2022-09-17T15:24:20;1.20;;;0.80;;
57191;SDS011;43052;52.588;13.396;2022-09-17T15:27:05;0.80;;;0.70;;
57191;SDS011;43052;52.588;13.396;2022-09-17T15:29:37;5.65;;;1.10;;
57191;SDS011;43052;52.588;13.396;2022-09-17T15:32:07;0.68;;;0.65;;
57191;SDS011;43052;52.588;13.396;2022-09-17T15:34:35;2.60;;;0.70;;
57191;SDS011;43052;52.588;13.396;2022-09-17T15:37:05;0.93;;;0.70;;
57191;SDS011;43052;52.588;13.396;2022-09-17T15:39:52;1.67;;;0.57;;
57191;SDS011;43052;52.588;13.396;2022-09-17T15:42:24;1.33;;;0.80;;
57191;SDS011;43052;52.588;13.396;2022-09-17T15:47:54;2.70;;;0.70;;
57191;SDS011;43052;52.588;13.396;2022-09-17T15:50:27;2.53;;;1.30;;
57191;SDS011;43052;52.588;13.396;2022-09-17T15:55:38;2.72;;;1.38;;
57191;SDS011;43052;52.588;13.396;2022-09-17T16:08:41;3.10;;;1.10;;
57191;SDS011;43052;52.588;13.396;2022-09-17T16:11:06;3.85;;;1.25;;
57191;SDS011;43052;52.588;13.396;2022-09-17T16:13:31;3.47;;;2.15;;
57191;SDS011;43052;52.588;13.396;2022-09-17T16:15:57;2.72;;;1.10;;
57191;SDS011;43052;52.588;13.396;2022-09-17T16:18:22;1.60;;;0.90;;
57191;SDS011;43052;52.588;13.396;2022-09-17T16:20:48;3.17;;;0.77;;
57191;SDS011;43052;52.588;13.396;2022-09-17T16:23:13;1.95;;;1.10;;
57191;SDS011;43052;52.588;13.396;2022-09-17T16:25:38;2.45;;;0.85;;
57191;SDS011;43052;52.588;13.396;2022-09-17T16:28:11;2.30;;;1.10;;
57191;SDS011;43052;52.588;13.396;2022-09-17T16:30:39;2.40;;;1.05;;
57191;SDS011;43052;52.588;13.396;2022-09-17T16:33:09;1.92;;;0.90;;
57191;SDS011;43052;52.588;13.396;2022-09-17T16:35:34;3.10;;;0.98;;
57191;SDS011;43052;52.588;13.396;2022-09-17T16:38:02;5.00;;;1.10;;
57191;SDS011;43052;52.588;13.396;2022-09-17T16:40:27;6.03;;;1.50;;
57191;SDS011;43052;52.588;13.396;2022-09-17T16:42:53;5.07;;;2.05;;
57191;SDS011;43052;52.588;13.396;2022-09-17T16:45:18;5.30;;;2.03;;
57191;SDS011;43052;52.588;13.396;2022-09-17T16:47:44;2.63;;;1.20;;
57191;SDS011;43052;52.588;13.396;2022-09-17T16:50:13;3.03;;;1.40;;
57191;SDS011;43052;52.588;13.396;2022-09-17T16:52:39;1.48;;;1.08;;
57191;SDS011;43052;52.588;13.396;2022-09-17T16:55:05;4.80;;;1.50;;
57191;SDS011;43052;52.588;13.396;2022-09-17T16:57:32;3.25;;;1.45;;
57191;SDS011;43052;52.588;13.396;2022-09-17T16:59:58;5.30;;;1.55;;
57191;SDS011;43052;52.588;13.396;2022-09-17T17:02:23;2.45;;;1.40;;
57191;SDS011;43052;52.588;13.396;2022-09-17T17:04:49;2.03;;;1.05;;
57191;SDS011;43052;52.588;13.396;2022-09-17T17:07:14;1.98;;;1.02;;
57191;SDS011;43052;52.588;13.396;2022-09-17T17:09:39;1.92;;;1.10;;
57191;SDS011;43052;52.588;13.396;2022-09-17T17:12:05;4.05;;;1.30;;
57191;SDS011;43052;52.588;13.396;2022-09-17T17:14:30;3.72;;;1.20;;
57191;SDS011;43052;52.588;13.396;2022-09-17T17:16:56;1.88;;;0.88;;
57191;SDS011;43052;52.588;13.396;2022-09-17T17:19:21;3.08;;;1.15;;
57191;SDS011;43052;52.588;13.396;2022-09-17T17:21:50;3.72;;;1.30;;
57191;SDS011;43052;52.588;13.396;2022-09-17T17:24:16;2.22;;;1.08;;
57191;SDS011;43052;52.588;13.396;2022-09-17T17:26:42;3.72;;;1.02;;
57191;SDS011;43052;52.588;13.396;2022-09-17T17:29:07;7.20;;;1.60;;
57191;SDS011;43052;52.588;13.396;2022-09-17T17:31:33;2.95;;;1.50;;
57191;SDS011;43052;52.588;13.396;2022-09-17T17:33:58;3.50;;;1.30;;